createdAt,value
2017-11-06T00:00:23.538Z,8.2
2017-11-06T00:01:33.168Z,8.17
2017-11-06T00:02:43.456Z,8.14
2017-11-06T00:03:53.790Z,8.18
2017-11-06T00:05:04.076Z,8.13
2017-11-06T00:06:14.389Z,8.11
2017-11-06T00:07:24.690Z,8.14
2017-11-06T00:08:34.662Z,8.11
2017-11-06T00:09:44.942Z,8.17
2017-11-06T00:10:55.228Z,8.13
2017-11-06T00:12:05.523Z,8.06
2017-11-06T00:13:15.520Z,8.18
2017-11-06T00:14:25.489Z,8.08
2017-11-06T00:15:35.779Z,8.13
2017-11-06T00:16:46.074Z,8.13
2017-11-06T00:17:56.040Z,8.09
2017-11-06T00:19:06.341Z,8.08
2017-11-06T00:20:16.654Z,8.05
2017-11-06T00:21:26.955Z,8.03
2017-11-06T00:22:36.951Z,8.02
2017-11-06T00:23:47.262Z,8.03
2017-11-06T00:24:57.548Z,8.09
2017-11-06T00:26:07.843Z,8.06
2017-11-06T00:27:18.141Z,8.08
2017-11-06T00:28:28.424Z,7.99
2017-11-06T00:29:38.712Z,8.05
2017-11-06T00:30:49.011Z,8.02
2017-11-06T00:31:59.325Z,8.02
2017-11-06T00:33:09.282Z,8.01
2017-11-06T00:34:19.241Z,8.03
2017-11-06T00:35:29.203Z,8.01
2017-11-06T00:36:39.494Z,8.08
2017-11-06T00:37:49.784Z,8.02
2017-11-06T00:39:00.091Z,8.05
2017-11-06T00:40:10.058Z,7.99
2017-11-06T00:41:20.363Z,7.98
2017-11-06T00:42:30.669Z,7.99
2017-11-06T00:43:40.972Z,8.03
2017-11-06T00:44:51.261Z,7.98
2017-11-06T00:46:01.225Z,7.87
2017-11-06T00:47:11.523Z,7.91
2017-11-06T00:48:21.492Z,8.03
2017-11-06T00:49:31.454Z,7.91
2017-11-06T00:50:41.416Z,7.98
2017-11-06T00:51:51.713Z,7.98
2017-11-06T00:53:01.352Z,7.84
2017-11-06T00:54:11.652Z,7.85
2017-11-06T00:55:21.943Z,7.85
2017-11-06T00:56:31.908Z,7.93
2017-11-06T00:57:42.209Z,7.87
2017-11-06T00:58:52.494Z,7.88
2017-11-06T01:00:02.788Z,7.85
2017-11-06T01:01:12.765Z,7.81
2017-11-06T01:02:23.066Z,7.85
2017-11-06T01:03:33.060Z,7.91
2017-11-06T01:04:43.382Z,7.77
2017-11-06T01:05:53.029Z,7.8
2017-11-06T01:07:02.335Z,7.87
2017-11-06T01:08:12.643Z,7.88
2017-11-06T01:09:22.944Z,7.88
2017-11-06T01:10:33.250Z,7.85
2017-11-06T01:11:43.539Z,7.84
2017-11-06T01:12:53.501Z,7.74
2017-11-06T01:14:03.797Z,7.72
2017-11-06T01:15:14.124Z,7.84
2017-11-06T01:16:24.429Z,7.8
2017-11-06T01:17:34.387Z,7.8
2017-11-06T01:18:44.692Z,7.77
2017-11-06T01:19:54.665Z,7.77
2017-11-06T01:21:04.627Z,7.72
2017-11-06T01:22:14.918Z,7.77
2017-11-06T01:23:24.893Z,7.81
2017-11-06T01:24:34.862Z,7.78
2017-11-06T01:25:45.154Z,7.75
2017-11-06T01:26:55.444Z,7.8
2017-11-06T01:28:05.085Z,7.77
2017-11-06T01:29:14.720Z,7.77
2017-11-06T01:30:25.025Z,7.8
2017-11-06T01:31:35.002Z,7.78
2017-11-06T01:32:45.317Z,7.81
2017-11-06T01:33:55.277Z,7.81
2017-11-06T01:35:05.244Z,7.77
2017-11-06T01:36:15.214Z,7.75
2017-11-06T01:37:25.525Z,7.74
2017-11-06T01:38:35.816Z,7.7
2017-11-06T01:39:46.109Z,7.75
2017-11-06T01:40:56.390Z,7.67
2017-11-06T01:42:06.691Z,7.75
2017-11-06T01:43:16.989Z,7.74
2017-11-06T01:44:26.967Z,7.69
2017-11-06T01:45:37.278Z,7.7
2017-11-06T01:46:47.254Z,7.75
2017-11-06T01:47:57.545Z,7.67
2017-11-06T01:49:07.514Z,7.74
2017-11-06T01:50:17.800Z,7.7
2017-11-06T01:51:27.770Z,7.64
2017-11-06T01:52:38.071Z,7.7
2017-11-06T01:53:48.028Z,7.64
2017-11-06T01:54:58.307Z,7.62
2017-11-06T01:56:08.602Z,7.62
2017-11-06T01:57:18.570Z,7.72
2017-11-06T01:58:28.874Z,7.69
2017-11-06T01:59:39.159Z,7.61
2017-11-06T02:00:49.456Z,7.69
2017-11-06T02:01:59.418Z,7.66
2017-11-06T02:03:09.642Z,7.66
2017-11-06T02:04:19.940Z,7.62
2017-11-06T02:05:30.226Z,7.67
2017-11-06T02:06:40.516Z,7.61
2017-11-06T02:07:50.474Z,7.61
2017-11-06T02:09:00.444Z,7.59
2017-11-06T02:10:10.748Z,7.61
2017-11-06T02:11:21.041Z,7.55
2017-11-06T02:12:31.345Z,7.62
2017-11-06T02:13:41.632Z,7.53
2017-11-06T02:14:51.601Z,7.58
2017-11-06T02:16:01.902Z,7.58
2017-11-06T02:17:11.864Z,7.5
2017-11-06T02:18:21.926Z,7.55
2017-11-06T02:19:32.215Z,7.53
2017-11-06T02:20:42.504Z,7.55
2017-11-06T02:21:52.794Z,7.64
2017-11-06T02:23:03.088Z,7.66
2017-11-06T02:24:13.057Z,7.51
2017-11-06T02:25:23.370Z,7.59
2017-11-06T02:26:33.666Z,7.51
2017-11-06T02:27:43.964Z,7.56
2017-11-06T02:28:53.938Z,7.56
2017-11-06T02:30:04.257Z,7.55
2017-11-06T02:31:14.555Z,7.53
2017-11-06T02:32:24.526Z,7.53
2017-11-06T02:33:34.830Z,7.46
2017-11-06T02:34:45.120Z,7.5
2017-11-06T02:35:55.428Z,7.44
2017-11-06T02:37:05.068Z,7.46
2017-11-06T02:38:15.037Z,7.51
2017-11-06T02:39:25.005Z,7.51
2017-11-06T02:40:34.969Z,7.44
2017-11-06T02:41:45.273Z,7.53
2017-11-06T02:42:55.253Z,7.5
2017-11-06T02:44:05.801Z,7.46
2017-11-06T02:45:16.109Z,7.43
2017-11-06T02:46:26.092Z,7.4
2017-11-06T02:47:36.397Z,7.43
2017-11-06T02:48:46.691Z,7.41
2017-11-06T02:49:56.006Z,7.41
2017-11-06T02:51:06.301Z,7.37
2017-11-06T02:52:16.590Z,7.33
2017-11-06T02:53:26.869Z,7.39
2017-11-06T02:54:36.508Z,7.41
2017-11-06T02:55:46.803Z,7.4
2017-11-06T02:56:57.088Z,7.36
2017-11-06T02:58:07.389Z,7.37
2017-11-06T02:59:17.701Z,7.37
2017-11-06T03:00:28.002Z,7.36
2017-11-06T03:01:38.301Z,7.32
2017-11-06T03:02:48.270Z,7.37
2017-11-06T03:03:58.582Z,7.4
2017-11-06T03:05:08.870Z,7.33
2017-11-06T03:06:19.161Z,7.26
2017-11-06T03:07:29.138Z,7.33
2017-11-06T03:08:39.429Z,7.36
2017-11-06T03:09:49.723Z,7.29
2017-11-06T03:10:59.713Z,7.36
2017-11-06T03:12:09.995Z,7.28
2017-11-06T03:13:20.292Z,7.33
2017-11-06T03:14:29.948Z,7.29
2017-11-06T03:15:40.310Z,7.29
2017-11-06T03:16:50.286Z,7.37
2017-11-06T03:17:59.918Z,7.33
2017-11-06T03:19:10.211Z,7.32
2017-11-06T03:20:20.203Z,7.31
2017-11-06T03:21:30.494Z,7.28
2017-11-06T03:22:40.779Z,7.33
2017-11-06T03:23:50.754Z,7.28
2017-11-06T03:25:01.040Z,7.28
2017-11-06T03:26:11.024Z,7.33
2017-11-06T03:27:20.991Z,7.33
2017-11-06T03:28:31.289Z,7.22
2017-11-06T03:29:40.924Z,7.36
2017-11-06T03:30:51.227Z,7.31
2017-11-06T03:32:01.208Z,7.32
2017-11-06T03:33:11.507Z,7.29
2017-11-06T03:34:21.800Z,7.32
2017-11-06T03:35:32.091Z,7.31
2017-11-06T03:36:42.389Z,7.25
2017-11-06T03:37:52.682Z,7.15
2017-11-06T03:39:02.971Z,7.33
2017-11-06T03:40:12.936Z,7.18
2017-11-06T03:41:23.230Z,7.33
2017-11-06T03:42:33.208Z,7.22
2017-11-06T03:43:43.180Z,7.15
2017-11-06T03:44:53.476Z,7.15
2017-11-06T03:46:03.767Z,7.22
2017-11-06T03:47:14.071Z,7.14
2017-11-06T03:48:24.029Z,7.28
2017-11-06T03:49:34.335Z,7.18
2017-11-06T03:50:44.623Z,7.18
2017-11-06T03:51:54.910Z,7.21
2017-11-06T03:53:05.186Z,7.26
2017-11-06T03:54:15.145Z,7.23
2017-11-06T03:55:25.116Z,7.22
2017-11-06T03:56:35.399Z,7.19
2017-11-06T03:57:45.702Z,7.13
2017-11-06T03:58:55.990Z,7.23
2017-11-06T04:00:06.301Z,7.18
2017-11-06T04:01:16.590Z,7.22
2017-11-06T04:02:26.558Z,7.21
2017-11-06T04:03:36.856Z,7.15
2017-11-06T04:04:47.158Z,7.14
2017-11-06T04:05:57.473Z,7.22
2017-11-06T04:07:07.448Z,7.23
2017-11-06T04:08:17.669Z,7.21
2017-11-06T04:09:27.642Z,7.18
2017-11-06T04:10:37.941Z,7.19
2017-11-06T04:11:48.230Z,7.23
2017-11-06T04:12:58.534Z,7.22
2017-11-06T04:14:08.178Z,7.14
2017-11-06T04:15:18.468Z,7.22
2017-11-06T04:16:28.440Z,7.19
2017-11-06T04:17:38.414Z,7.15
2017-11-06T04:18:48.995Z,7.15
2017-11-06T04:19:59.298Z,7.21
2017-11-06T04:21:09.586Z,7.21
2017-11-06T04:22:19.229Z,7.18
2017-11-06T04:23:29.524Z,7.13
2017-11-06T04:24:39.813Z,7.14
2017-11-06T04:25:49.447Z,7.18
2017-11-06T04:26:59.406Z,7.18
2017-11-06T04:28:09.702Z,7.13
2017-11-06T04:29:19.662Z,7.13
2017-11-06T04:30:29.961Z,7.04
2017-11-06T04:31:40.245Z,7.15
2017-11-06T04:32:50.548Z,7.14
2017-11-06T04:34:00.848Z,7.13
2017-11-06T04:35:10.811Z,7.18
2017-11-06T04:36:21.166Z,7.08
2017-11-06T04:37:31.458Z,7.18
2017-11-06T04:38:41.430Z,7.13
2017-11-06T04:39:51.722Z,7.15
2017-11-06T04:41:01.688Z,7.11
2017-11-06T04:42:11.656Z,7.14
2017-11-06T04:43:21.933Z,7.15
2017-11-06T04:44:31.900Z,7.15
2017-11-06T04:45:42.185Z,7.19
2017-11-06T04:46:52.143Z,7.11
2017-11-06T04:48:02.111Z,7.13
2017-11-06T04:49:12.420Z,7.08
2017-11-06T04:50:22.377Z,7.04
2017-11-06T04:51:32.668Z,7.03
2017-11-06T04:52:42.633Z,7.05
2017-11-06T04:53:52.924Z,7.08
2017-11-06T04:55:02.888Z,7.01
2017-11-06T04:56:12.845Z,7
2017-11-06T04:57:22.165Z,7.01
2017-11-06T04:58:32.448Z,7.08
2017-11-06T04:59:42.760Z,6.97
2017-11-06T05:00:53.040Z,7.07
2017-11-06T05:02:02.680Z,7.01
2017-11-06T05:03:12.968Z,7.07
2017-11-06T05:04:22.959Z,7.03
2017-11-06T05:05:33.259Z,7.01
2017-11-06T05:06:43.560Z,7.01
2017-11-06T05:07:53.522Z,7.07
2017-11-06T05:09:03.822Z,7.04
2017-11-06T05:10:13.774Z,7.14
2017-11-06T05:11:24.070Z,6.97
2017-11-06T05:12:34.529Z,7
2017-11-06T05:13:44.843Z,7.01
2017-11-06T05:14:55.129Z,7.01
2017-11-06T05:16:05.451Z,6.97
2017-11-06T05:17:15.743Z,7.04
2017-11-06T05:18:26.036Z,7.05
2017-11-06T05:19:36.329Z,7.03
2017-11-06T05:20:46.325Z,6.95
2017-11-06T05:21:56.623Z,7
2017-11-06T05:23:06.595Z,7.05
2017-11-06T05:24:16.888Z,7.05
2017-11-06T05:25:27.209Z,6.93
2017-11-06T05:26:37.546Z,7.04
2017-11-06T05:27:47.515Z,7.04
2017-11-06T05:28:57.811Z,6.97
2017-11-06T05:30:08.112Z,7.03
2017-11-06T05:31:18.083Z,6.97
2017-11-06T05:32:28.361Z,6.95
2017-11-06T05:33:37.995Z,6.95
2017-11-06T05:34:48.292Z,6.93
2017-11-06T05:35:58.289Z,6.92
2017-11-06T05:37:08.575Z,6.89
2017-11-06T05:38:18.888Z,6.93
2017-11-06T05:39:29.178Z,6.89
2017-11-06T05:40:39.485Z,6.87
2017-11-06T05:41:49.780Z,6.87
2017-11-06T05:43:00.088Z,6.86
2017-11-06T05:44:10.410Z,6.93
2017-11-06T05:45:20.729Z,6.86
2017-11-06T05:46:31.009Z,6.85
2017-11-06T05:47:40.646Z,6.86
2017-11-06T05:48:50.943Z,6.82
2017-11-06T05:50:01.235Z,6.83
2017-11-06T05:51:10.869Z,6.8
2017-11-06T05:52:21.153Z,6.68
2017-11-06T05:53:31.445Z,6.72
2017-11-06T05:54:41.745Z,6.64
2017-11-06T05:55:51.712Z,6.67
2017-11-06T05:57:01.994Z,6.68
2017-11-06T05:58:11.630Z,6.7
2017-11-06T05:59:21.596Z,6.6
2017-11-06T06:00:31.887Z,6.71
2017-11-06T06:01:41.859Z,6.64
2017-11-06T06:02:52.158Z,6.62
2017-11-06T06:04:01.797Z,6.56
2017-11-06T06:05:12.075Z,6.57
2017-11-06T06:06:22.364Z,6.64
2017-11-06T06:07:32.322Z,6.54
2017-11-06T06:08:42.643Z,6.52
2017-11-06T06:09:52.946Z,6.6
2017-11-06T06:11:02.905Z,6.59
2017-11-06T06:12:13.197Z,6.57
2017-11-06T06:13:23.492Z,6.57
2017-11-06T06:14:33.457Z,6.6
2017-11-06T06:15:43.747Z,6.6
2017-11-06T06:16:53.711Z,6.5
2017-11-06T06:18:03.697Z,6.49
2017-11-06T06:19:13.989Z,6.41
2017-11-06T06:20:24.281Z,6.47
2017-11-06T06:21:34.253Z,6.41
2017-11-06T06:22:44.551Z,6.43
2017-11-06T06:23:54.550Z,6.35
2017-11-06T06:25:04.836Z,6.34
2017-11-06T06:26:15.132Z,6.32
2017-11-06T06:27:25.425Z,6.39
2017-11-06T06:28:35.736Z,6.35
2017-11-06T06:29:46.023Z,6.31
2017-11-06T06:30:56.321Z,6.32
2017-11-06T06:32:06.620Z,6.26
2017-11-06T06:33:16.913Z,6.26
2017-11-06T06:34:26.888Z,6.29
2017-11-06T06:35:37.190Z,6.28
2017-11-06T06:36:47.493Z,6.34
2017-11-06T06:37:57.786Z,6.31
2017-11-06T06:39:07.740Z,6.31
2017-11-06T06:40:18.441Z,6.19
2017-11-06T06:41:28.893Z,6.2
2017-11-06T06:42:38.896Z,6.25
2017-11-06T06:43:49.191Z,6.17
2017-11-06T06:44:59.495Z,6.16
2017-11-06T06:46:09.779Z,6.15
2017-11-06T06:47:19.869Z,6.13
2017-11-06T06:48:29.864Z,6.25
2017-11-06T06:49:40.151Z,6.17
2017-11-06T06:50:50.476Z,6.13
2017-11-06T06:52:00.439Z,6.26
2017-11-06T06:53:10.750Z,6.22
2017-11-06T06:54:21.049Z,6.26
2017-11-06T06:55:31.346Z,6.26
2017-11-06T06:56:41.646Z,6.26
2017-11-06T06:57:51.988Z,6.35
2017-11-06T06:59:02.340Z,6.29
2017-11-06T07:00:12.319Z,6.28
2017-11-06T07:01:22.609Z,6.31
2017-11-06T07:02:32.896Z,6.28
2017-11-06T07:03:43.197Z,6.26
2017-11-06T07:04:53.506Z,6.25
2017-11-06T07:06:03.798Z,6.31
2017-11-06T07:07:14.094Z,6.26
2017-11-06T07:08:24.052Z,6.22
2017-11-06T07:09:34.013Z,6.32
2017-11-06T07:10:43.662Z,6.31
2017-11-06T07:11:53.983Z,6.35
2017-11-06T07:13:03.628Z,6.34
2017-11-06T07:14:13.982Z,6.28
2017-11-06T07:15:24.290Z,6.39
2017-11-06T07:16:34.624Z,6.39
2017-11-06T07:17:44.628Z,6.29
2017-11-06T07:18:54.986Z,6.35
2017-11-06T07:20:04.983Z,6.34
2017-11-06T07:21:14.989Z,6.31
2017-11-06T07:22:25.015Z,6.36
2017-11-06T07:23:35.327Z,6.31
2017-11-06T07:24:45.299Z,6.35
2017-11-06T07:25:55.271Z,6.36
2017-11-06T07:27:05.256Z,6.35
2017-11-06T07:28:15.668Z,6.39
2017-11-06T07:29:26.213Z,6.35
2017-11-06T07:30:36.194Z,6.36
2017-11-06T07:31:46.170Z,6.35
2017-11-06T07:32:56.204Z,6.44
2017-11-06T07:34:06.497Z,6.36
2017-11-06T07:35:16.808Z,6.39
2017-11-06T07:36:27.104Z,6.36
2017-11-06T07:37:37.413Z,6.43
2017-11-06T07:38:47.700Z,6.41
2017-11-06T07:39:57.662Z,6.47
2017-11-06T07:41:07.976Z,6.36
2017-11-06T07:42:17.982Z,6.35
2017-11-06T07:43:28.319Z,6.47
2017-11-06T07:44:38.348Z,6.38
2017-11-06T07:45:48.665Z,6.36
2017-11-06T07:46:59.256Z,6.35
2017-11-06T07:48:09.489Z,6.38
2017-11-06T07:49:19.460Z,6.34
2017-11-06T07:50:29.463Z,6.36
2017-11-06T07:51:39.773Z,6.39
2017-11-06T07:52:50.349Z,6.41
2017-11-06T07:54:01.154Z,6.43
2017-11-06T07:55:11.623Z,6.5
2017-11-06T07:56:21.924Z,6.52
2017-11-06T07:57:32.239Z,6.54
2017-11-06T07:58:42.548Z,6.54
2017-11-06T07:59:52.839Z,6.54
2017-11-06T08:01:03.141Z,6.54
2017-11-06T08:02:13.441Z,6.53
2017-11-06T08:03:23.773Z,6.56
2017-11-06T08:04:34.077Z,6.53
2017-11-06T08:05:44.417Z,6.53
2017-11-06T08:06:54.708Z,6.6
2017-11-06T08:08:05.002Z,6.56
2017-11-06T08:09:14.982Z,6.56
2017-11-06T08:10:25.291Z,6.49
2017-11-06T08:11:35.581Z,6.57
2017-11-06T08:12:45.873Z,6.56
2017-11-06T08:13:56.171Z,6.62
2017-11-06T08:15:06.481Z,6.57
2017-11-06T08:16:16.791Z,6.6
2017-11-06T08:17:27.110Z,6.52
2017-11-06T08:18:37.074Z,6.62
2017-11-06T08:19:47.067Z,6.65
2017-11-06T08:20:57.038Z,6.62
2017-11-06T08:22:07.357Z,6.59
2017-11-06T08:23:16.996Z,6.65
2017-11-06T08:24:27.322Z,6.57
2017-11-06T08:25:37.865Z,6.7
2017-11-06T08:26:48.167Z,6.59
2017-11-06T08:27:58.184Z,6.59
2017-11-06T08:29:08.501Z,6.6
2017-11-06T08:30:18.800Z,6.56
2017-11-06T08:31:29.132Z,6.67
2017-11-06T08:32:39.451Z,6.56
2017-11-06T08:33:49.105Z,6.72
2017-11-06T08:34:59.089Z,6.71
2017-11-06T08:36:09.417Z,6.64
2017-11-06T08:37:19.869Z,6.75
2017-11-06T08:38:30.165Z,6.8
2017-11-06T08:39:39.883Z,6.8
2017-11-06T08:40:50.186Z,6.8
2017-11-06T08:42:00.153Z,6.85
2017-11-06T08:43:10.446Z,6.86
2017-11-06T08:44:20.825Z,6.86
2017-11-06T08:45:30.802Z,6.85
2017-11-06T08:46:40.785Z,6.87
2017-11-06T08:47:51.105Z,6.9
2017-11-06T08:49:01.431Z,6.92
2017-11-06T08:50:11.748Z,6.89
2017-11-06T08:51:22.109Z,6.96
2017-11-06T08:52:32.423Z,6.96
2017-11-06T08:53:42.708Z,7
2017-11-06T08:54:52.687Z,6.93
2017-11-06T08:56:03.006Z,6.96
2017-11-06T08:57:13.317Z,7.04
2017-11-06T08:58:23.667Z,7.05
2017-11-06T08:59:33.684Z,7
2017-11-06T09:00:43.359Z,7.01
2017-11-06T09:01:53.716Z,7.03
2017-11-06T09:03:04.051Z,6.93
2017-11-06T09:04:14.446Z,7.01
2017-11-06T09:05:23.814Z,7.04
2017-11-06T09:06:33.790Z,7.08
2017-11-06T09:07:44.163Z,7.07
2017-11-06T09:08:55.521Z,7.21
2017-11-06T09:10:05.829Z,7.21
2017-11-06T09:11:16.102Z,7.21
2017-11-06T09:12:26.437Z,7.19
2017-11-06T09:13:36.780Z,7.19
2017-11-06T09:14:46.740Z,7.15
2017-11-06T09:15:56.064Z,7.13
2017-11-06T09:17:06.393Z,7.13
2017-11-06T09:18:16.385Z,7.18
2017-11-06T09:19:26.280Z,7.15
2017-11-06T09:20:36.659Z,7.19
2017-11-06T09:21:46.959Z,7.21
2017-11-06T09:22:57.250Z,7.19
2017-11-06T09:24:07.562Z,7.14
2017-11-06T09:25:17.569Z,7.14
2017-11-06T09:26:26.948Z,7.11
2017-11-06T09:27:36.972Z,7.13
2017-11-06T09:28:47.263Z,7.18
2017-11-06T09:29:57.579Z,7.19
2017-11-06T09:31:07.879Z,7.21
2017-11-06T09:32:18.185Z,7.21
2017-11-06T09:33:28.495Z,7.18
2017-11-06T09:34:38.456Z,7.15
2017-11-06T09:35:48.754Z,7.23
2017-11-06T09:36:59.057Z,7.21
2017-11-06T09:38:09.373Z,7.28
2017-11-06T09:39:19.357Z,7.28
2017-11-06T09:40:29.685Z,7.32
2017-11-06T09:41:39.349Z,7.19
2017-11-06T09:42:49.653Z,7.23
2017-11-06T09:43:59.949Z,7.29
2017-11-06T09:45:10.261Z,7.32
2017-11-06T09:46:20.267Z,7.36
2017-11-06T09:47:30.280Z,7.32
2017-11-06T09:48:40.592Z,7.37
2017-11-06T09:49:50.899Z,7.36
2017-11-06T09:51:01.215Z,7.37
2017-11-06T09:52:11.580Z,7.44
2017-11-06T09:53:21.923Z,7.39
2017-11-06T09:54:32.275Z,7.46
2017-11-06T09:55:42.271Z,7.55
2017-11-06T09:56:52.242Z,7.58
2017-11-06T09:58:02.212Z,7.59
2017-11-06T09:59:12.201Z,7.75
2017-11-06T10:00:22.160Z,7.81
2017-11-06T10:01:31.813Z,7.87
2017-11-06T10:02:42.152Z,7.77
2017-11-06T10:03:52.566Z,7.91
2017-11-06T10:05:02.972Z,8.01
2017-11-06T10:06:13.384Z,8.02
2017-11-06T10:07:23.708Z,8.01
2017-11-06T10:08:33.709Z,7.99
2017-11-06T10:09:44.051Z,8.05
2017-11-06T10:10:54.355Z,7.87
2017-11-06T10:12:04.663Z,8.03
2017-11-06T10:13:14.623Z,7.96
2017-11-06T10:14:24.937Z,8.05
2017-11-06T10:15:35.243Z,8.02
2017-11-06T10:16:45.212Z,8.09
2017-11-06T10:17:55.535Z,8.05
2017-11-06T10:19:05.833Z,8.09
2017-11-06T10:20:15.799Z,8.17
2017-11-06T10:21:26.086Z,8.21
2017-11-06T10:22:36.391Z,8.24
2017-11-06T10:23:46.697Z,8.26
2017-11-06T10:24:57.016Z,8.35
2017-11-06T10:26:07.316Z,8.34
2017-11-06T10:27:17.634Z,8.36
2017-11-06T10:28:27.955Z,8.35
2017-11-06T10:29:38.520Z,8.44
2017-11-06T10:30:48.818Z,8.53
2017-11-06T10:31:58.791Z,8.86
2017-11-06T10:33:09.084Z,9
2017-11-06T10:34:19.401Z,9.26
2017-11-06T10:35:29.048Z,9.31
2017-11-06T10:36:39.030Z,9.45
2017-11-06T10:37:49.342Z,9.66
2017-11-06T10:38:59.313Z,9.77
2017-11-06T10:40:09.631Z,9.77
2017-11-06T10:41:19.918Z,9.97
2017-11-06T10:42:30.220Z,10.27
2017-11-06T10:43:40.551Z,10.42
2017-11-06T10:44:50.871Z,10.55
2017-11-06T10:46:00.543Z,10.68
2017-11-06T10:47:10.852Z,10.9
2017-11-06T10:48:21.167Z,10.82
2017-11-06T10:49:31.136Z,10.72
2017-11-06T10:50:41.443Z,10.61
2017-11-06T10:51:51.436Z,10.76
2017-11-06T10:53:01.743Z,10.82
2017-11-06T10:54:12.053Z,10.84
2017-11-06T10:55:22.357Z,10.94
2017-11-06T10:56:32.386Z,10.87
2017-11-06T10:57:42.694Z,11.16
2017-11-06T10:58:53.022Z,11.25
2017-11-06T11:00:03.340Z,11.48
2017-11-06T11:01:13.651Z,11.45
2017-11-06T11:02:23.616Z,11.58
2017-11-06T11:03:33.605Z,11.62
2017-11-06T11:04:43.932Z,11.71
2017-11-06T11:05:53.907Z,11.91
2017-11-06T11:07:04.207Z,11.89
2017-11-06T11:08:14.529Z,11.8
2017-11-06T11:09:25.043Z,11.89
2017-11-06T11:10:35.021Z,11.74
2017-11-06T11:11:45.006Z,11.89
2017-11-06T11:12:55.340Z,11.96
2017-11-06T11:14:05.647Z,11.93
2017-11-06T11:15:15.956Z,11.89
2017-11-06T11:16:26.305Z,12.37
2017-11-06T11:17:36.651Z,12.58
2017-11-06T11:18:46.950Z,12.98
2017-11-06T11:19:57.250Z,13.27
2017-11-06T11:21:07.562Z,13.45
2017-11-06T11:22:17.559Z,13.6
2017-11-06T11:23:27.873Z,13.58
2017-11-06T11:24:38.179Z,13.64
2017-11-06T11:25:48.489Z,13.94
2017-11-06T11:26:58.819Z,14.31
2017-11-06T11:28:09.131Z,14.58
2017-11-06T11:29:19.452Z,14.77
2017-11-06T11:30:29.431Z,14.86
2017-11-06T11:31:39.434Z,14.9
2017-11-06T11:32:49.752Z,15
2017-11-06T11:34:00.082Z,15.07
2017-11-06T11:35:10.058Z,15.18
2017-11-06T11:36:20.356Z,14.74
2017-11-06T11:37:30.674Z,14.81
2017-11-06T11:38:40.652Z,14.93
2017-11-06T11:39:50.646Z,14.51
2017-11-06T11:41:00.990Z,14.55
2017-11-06T11:42:11.321Z,14.74
2017-11-06T11:43:21.636Z,15.02
2017-11-06T11:44:31.311Z,14.85
2017-11-06T11:45:41.632Z,14.62
2017-11-06T11:46:51.960Z,14.56
2017-11-06T11:48:02.286Z,14.89
2017-11-06T11:49:11.938Z,14.92
2017-11-06T11:50:22.253Z,15.02
2017-11-06T11:51:32.575Z,15.23
2017-11-06T11:52:42.909Z,15.51
2017-11-06T11:53:52.901Z,15.12
2017-11-06T11:55:02.871Z,14.74
2017-11-06T11:56:13.195Z,14.56
2017-11-06T11:57:23.493Z,14.56
2017-11-06T11:58:33.799Z,14.68
2017-11-06T11:59:44.110Z,14.56
2017-11-06T12:00:54.088Z,14.13
2017-11-06T12:02:04.410Z,14.28
2017-11-06T12:03:14.711Z,14.73
2017-11-06T12:04:25.060Z,14.77
2017-11-06T12:05:35.044Z,15.15
2017-11-06T12:06:45.416Z,15.59
2017-11-06T12:07:54.752Z,15.63
2017-11-06T12:09:05.075Z,15.8
2017-11-06T12:10:15.057Z,16.08
2017-11-06T12:11:25.372Z,16.34
2017-11-06T12:12:35.704Z,16.46
2017-11-06T12:13:45.702Z,16.43
2017-11-06T12:14:55.685Z,15.94
2017-11-06T12:16:05.680Z,15.51
2017-11-06T12:17:15.996Z,14.97
2017-11-06T12:18:26.305Z,14.37
2017-11-06T12:19:36.272Z,14.25
2017-11-06T12:20:46.590Z,14.51
2017-11-06T12:21:56.923Z,14.45
2017-11-06T12:23:07.264Z,14.62
2017-11-06T12:24:17.257Z,14.74
2017-11-06T12:25:27.268Z,14.77
2017-11-06T12:26:37.404Z,14.51
2017-11-06T12:27:47.769Z,14.12
2017-11-06T12:28:57.746Z,13.89
2017-11-06T12:30:07.743Z,13.91
2017-11-06T12:31:17.735Z,13.87
2017-11-06T12:32:27.729Z,14.16
2017-11-06T12:33:38.066Z,14.49
2017-11-06T12:34:48.418Z,14.78
2017-11-06T12:35:58.723Z,15.3
2017-11-06T12:37:09.052Z,15.02
2017-11-06T12:38:19.022Z,14.62
2017-11-06T12:39:29.012Z,14.28
2017-11-06T12:40:39.325Z,14.36
2017-11-06T12:41:48.990Z,14.18
2017-11-06T12:42:59.558Z,14.3
2017-11-06T12:44:09.619Z,14.74
2017-11-06T12:45:19.666Z,14.99
2017-11-06T12:46:30.038Z,15.3
2017-11-06T12:47:39.793Z,15.78
2017-11-06T12:48:50.143Z,16.12
2017-11-06T12:50:00.495Z,16.18
2017-11-06T12:51:10.837Z,16.21
2017-11-06T12:52:20.817Z,16.12
2017-11-06T12:53:31.118Z,16.4
2017-11-06T12:54:41.106Z,16.65
2017-11-06T12:55:51.085Z,16.47
2017-11-06T12:57:01.090Z,16.28
2017-11-06T12:58:11.396Z,16
2017-11-06T12:59:21.732Z,16.1
2017-11-06T13:00:31.703Z,15.88
2017-11-06T13:01:41.693Z,15.51
2017-11-06T13:02:52.028Z,15.3
2017-11-06T13:04:02.338Z,15.14
2017-11-06T13:05:12.642Z,15.15
2017-11-06T13:06:22.969Z,15.23
2017-11-06T13:07:32.963Z,15.43
2017-11-06T13:08:43.492Z,15
2017-11-06T13:09:53.846Z,14.36
2017-11-06T13:11:04.208Z,14.01
2017-11-06T13:12:14.524Z,14.01
2017-11-06T13:13:24.845Z,14.53
2017-11-06T13:14:34.511Z,14.87
2017-11-06T13:15:44.491Z,15.37
2017-11-06T13:16:54.806Z,15.83
2017-11-06T13:18:05.112Z,16.08
2017-11-06T13:19:15.432Z,15.81
2017-11-06T13:20:25.741Z,15.5
2017-11-06T13:21:36.052Z,15.08
2017-11-06T13:22:46.384Z,14.86
2017-11-06T13:23:56.702Z,14.62
2017-11-06T13:25:06.694Z,14.58
2017-11-06T13:26:16.356Z,14.81
2017-11-06T13:27:26.676Z,15
2017-11-06T13:28:36.984Z,15.19
2017-11-06T13:29:47.331Z,15.41
2017-11-06T13:30:56.975Z,15.63
2017-11-06T13:32:07.298Z,15.67
2017-11-06T13:33:17.608Z,15.84
2017-11-06T13:34:27.593Z,15.7
2017-11-06T13:35:37.896Z,15.37
2017-11-06T13:36:48.217Z,14.99
2017-11-06T13:37:58.195Z,15.14
2017-11-06T13:39:07.840Z,15.27
2017-11-06T13:40:18.162Z,15.57
2017-11-06T13:41:28.154Z,15.78
2017-11-06T13:42:38.448Z,15.7
2017-11-06T13:43:48.763Z,15.55
2017-11-06T13:44:58.734Z,15.29
2017-11-06T13:46:09.051Z,15.05
2017-11-06T13:47:18.704Z,14.79
2017-11-06T13:48:29.009Z,14.62
2017-11-06T13:49:39.332Z,14.66
2017-11-06T13:50:49.324Z,14.4
2017-11-06T13:51:59.641Z,14.28
2017-11-06T13:53:09.963Z,14.3
2017-11-06T13:54:19.940Z,14.41
2017-11-06T13:55:30.258Z,14.33
2017-11-06T13:56:40.569Z,14.01
2017-11-06T13:57:50.896Z,13.97
2017-11-06T13:59:00.226Z,13.78
2017-11-06T14:00:10.215Z,13.68
2017-11-06T14:01:20.225Z,13.75
2017-11-06T14:02:30.527Z,13.75
2017-11-06T14:03:40.857Z,13.91
2017-11-06T14:04:51.175Z,13.98
2017-11-06T14:06:01.498Z,13.97
2017-11-06T14:07:11.819Z,14
2017-11-06T14:08:22.141Z,13.93
2017-11-06T14:09:32.453Z,14.04
2017-11-06T14:10:42.768Z,13.75
2017-11-06T14:11:53.062Z,13.68
2017-11-06T14:13:03.383Z,13.5
2017-11-06T14:14:13.691Z,13.37
2017-11-06T14:15:24.019Z,13.26
2017-11-06T14:16:34.332Z,13.21
2017-11-06T14:17:44.647Z,13.33
2017-11-06T14:18:54.643Z,13.46
2017-11-06T14:20:04.947Z,13.49
2017-11-06T14:21:15.292Z,13.36
2017-11-06T14:22:25.277Z,13.24
2017-11-06T14:23:34.942Z,13.13
2017-11-06T14:24:44.948Z,13.13
2017-11-06T14:25:55.256Z,13.28
2017-11-06T14:27:04.905Z,13.24
2017-11-06T14:28:14.890Z,13.31
2017-11-06T14:29:25.189Z,13.31
2017-11-06T14:30:35.508Z,13.31
2017-11-06T14:31:45.497Z,13.26
2017-11-06T14:32:55.813Z,13.11
2017-11-06T14:34:05.785Z,13.08
2017-11-06T14:35:15.761Z,12.9
2017-11-06T14:36:25.741Z,12.81
2017-11-06T14:37:35.739Z,12.66
2017-11-06T14:38:46.048Z,12.51
2017-11-06T14:39:56.019Z,12.51
2017-11-06T14:41:06.006Z,12.63
2017-11-06T14:42:16.310Z,12.48
2017-11-06T14:43:26.291Z,12.47
2017-11-06T14:44:35.931Z,12.47
2017-11-06T14:45:46.242Z,12.48
2017-11-06T14:46:56.567Z,12.43
2017-11-06T14:48:06.887Z,12.3
2017-11-06T14:49:16.870Z,12.39
2017-11-06T14:50:26.859Z,12.26
2017-11-06T14:51:37.183Z,12.33
2017-11-06T14:52:47.523Z,12.23
2017-11-06T14:53:57.523Z,12.3
2017-11-06T14:55:07.871Z,12.26
2017-11-06T14:56:18.209Z,12.3
2017-11-06T14:57:28.507Z,12.4
2017-11-06T14:58:38.494Z,12.25
2017-11-06T14:59:48.798Z,12.14
2017-11-06T15:00:58.761Z,11.99
2017-11-06T15:02:09.062Z,11.95
2017-11-06T15:03:19.389Z,11.81
2017-11-06T15:04:29.038Z,11.77
2017-11-06T15:05:39.348Z,11.53
2017-11-06T15:06:49.328Z,11.53
2017-11-06T15:07:59.303Z,11.44
2017-11-06T15:09:09.619Z,11.3
2017-11-06T15:10:19.927Z,11.25
2017-11-06T15:11:30.229Z,11.02
2017-11-06T15:12:40.201Z,10.9
2017-11-06T15:13:50.495Z,10.71
2017-11-06T15:15:00.799Z,10.64
2017-11-06T15:16:11.097Z,10.53
2017-11-06T15:17:21.074Z,10.57
2017-11-06T15:18:31.371Z,10.48
2017-11-06T15:19:41.334Z,10.34
2017-11-06T15:20:50.990Z,10.2
2017-11-06T15:22:00.977Z,10.23
2017-11-06T15:23:11.282Z,10.24
2017-11-06T15:24:21.251Z,10.1
2017-11-06T15:25:31.556Z,10.05
2017-11-06T15:26:41.860Z,9.99
2017-11-06T15:27:51.736Z,9.95